Skip to main content

NOAA/GLERL Met Station at Michigan City, IN

Previous 5 days (top of hour only)
See also Previous 3 Hours (2 minute increments)
Jump down to Data
Switch to [English][Metric]
Zoom: Click and drag, Pan: shift-click and drag, Unzoom: double-click, Unzoom All




Note: Speed = mean wind during 2-minute period at top of hour,
Gust = max wind during 2-minute period at top of hour,
Peak = max wind during entire hour.
• See also 5-day windrose plot


NOAA/GLERL Met Station at Michigan City, IN

Previous 5 days (top of hour only)
See also Previous 3 Hours (2 minute increments)
Jump up to Graphs
Switch to [English][Metric]
                  Wind  Wind  Wind   Air   Dew   Rel     Sta   PAR
                   Spd   Gst   Dir  Temp    Pt   Hum    Pres uE/m2/
YYYY-MM-DD   CDT   kts   kts   deg     F     F     %   in Hg   sec
2017-07-23 13:00   5.2   6.2   275  79.9  71.8  75.9    0.00     0
2017-07-23 12:00   5.2   5.8   278  79.2  71.7  77.6    0.00     0
2017-07-23 11:00   1.6   1.7   255  76.3  70.4  81.6    0.00     0
2017-07-23 09:00   2.1   2.3   229  74.1  68.0  81.0    0.00     0
2017-07-23 08:00   3.1   3.5   267  74.7  72.0  91.3    0.00     0
2017-07-23 07:00   1.7   1.9   115  73.4  71.8  94.7    0.00     0
2017-07-23 06:00   1.4   1.6    66  71.4  71.3  99.6    0.00     0
2017-07-23 05:00   2.1   2.5   146  72.3  71.1  96.0    0.00     0
2017-07-23 04:00   3.3   3.7   272  72.7  71.8  97.0    0.00     0
2017-07-23 03:00   2.5   2.7   174  73.2  69.3  87.2    0.00     0
2017-07-23 02:00   4.7   5.1   143  73.2  68.8  85.9    0.00     0
2017-07-23 01:00   4.3   4.7   147  72.9  69.6  89.4    0.00     0
2017-07-23 00:00   1.9   2.3    96  73.0  69.9  89.8    0.00     0
2017-07-22 23:00   1.9   2.5    68  73.6  69.2  85.8    0.00     0
2017-07-22 22:00   3.5   4.1    78  73.2  68.9  86.1    0.00     0
2017-07-22 21:00   4.5   4.9    70  74.3  68.7  82.5    0.00     0
2017-07-22 20:00   6.6   7.0    38  75.2  68.5  79.4    0.00     0
2017-07-22 19:00   5.6   6.2    32  75.9  67.4  74.4    0.00     0
2017-07-22 18:00   1.9   2.3    27  76.8  67.5  72.5    0.00     0
2017-07-22 17:00   0.6   1.2    35  77.7  66.7  68.5    0.00     0
2017-07-22 14:00   9.5  10.1   352  74.1  69.3  84.7    0.00     0
2017-07-22 13:00   9.1   9.5   341  74.8  68.4  80.0    0.00     0
2017-07-22 12:00  11.9  12.6   353  74.5  69.4  84.0    0.00     0
2017-07-22 11:00   5.6   6.0   330  75.2  71.4  87.8    0.00     0
2017-07-22 10:00   6.4   7.6   273  73.9  70.7  89.3    0.00     0
2017-07-22 09:00   2.9   3.7     1  72.9  71.4  95.1    0.00     0
2017-07-22 08:00  11.9  13.4   236  72.7  71.4  95.7    0.00     0
2017-07-22 07:00  17.9  21.4   192  72.3  71.3  96.6    0.00     0
2017-07-22 06:00  20.8  27.0   188  71.8  71.4  98.6    0.00     0
2017-07-22 05:00  12.2  15.9   168  71.8  71.6  99.4    0.00     0
2017-07-22 04:00   9.1  10.5   130  71.2  71.6 101.2    0.00     0
2017-07-22 03:00   8.7   9.7   136  71.2  71.6 101.2    0.00     0
2017-07-22 02:00  11.3  12.8   148  71.2  71.4 100.7    0.00     0
2017-07-22 01:00  11.1  13.0   153  72.0  71.4  98.0    0.00     0
2017-07-22 00:00  11.3  15.2   163  73.0  72.3  97.4    0.00     0
2017-07-21 23:00   8.9  10.1   118  71.4  70.7  97.7    0.00     0
2017-07-21 22:00  12.8  15.0   223  71.2  71.4 100.4    0.00     0
2017-07-21 21:00   3.3   4.3   102  77.2  75.0  92.8    0.00     0
2017-07-21 20:00   5.1   5.8    92  76.3  74.8  95.2    0.00     0
2017-07-21 19:00  11.1  12.2    53  75.2  74.4  97.4    0.00     0
2017-07-21 18:00  12.1  12.6     4  76.3  74.6  94.4    0.00     0
2017-07-21 17:00   7.2   8.7    36  77.5  72.5  84.2    0.00     0
2017-07-21 16:00   7.2   7.6     0  80.4  67.7  64.7    0.00     0
2017-07-21 15:00   6.0   6.6   353  80.8  70.0  69.2    0.00     0
2017-07-21 14:00   3.7   5.8    25  77.4  69.1  75.4    0.00     0
2017-07-21 13:00   5.6   6.2    16  75.9  71.9  87.1    0.00     0
2017-07-21 12:00   2.5   2.9   347  79.5  70.8  74.4    0.00     0
2017-07-21 11:00   7.8   8.2   324  77.4  70.0  77.7    0.00     0
2017-07-21 10:00   6.2   7.4    64  80.1  62.3  54.0    0.00     0
2017-07-21 09:00   7.4   8.9    79  77.5  66.2  67.5    0.00     0
2017-07-21 08:00   4.5   5.4    82  75.0  67.8  78.0    0.00     0
2017-07-21 07:00   5.8   6.8    62  72.0  70.9  96.5    0.00     0
2017-07-21 06:00   0.4   1.0   164  73.0  69.6  88.7    0.00     0
2017-07-21 05:00   5.8   6.6   119  73.2  69.3  87.2    0.00     0
2017-07-21 04:00   4.1   5.1   198  73.6  69.7  87.4    0.00     0
2017-07-21 03:00   0.2   0.6   217  73.4  67.5  81.6    0.00     0
2017-07-21 02:00   4.3   4.5    65  72.9  68.1  84.7    0.00     0
2017-07-21 01:00   1.7   2.1    63  74.1  67.6  79.8    0.00     0
2017-07-21 00:00   2.9   2.9    49  75.0  68.1  78.8    0.00     0
2017-07-20 23:00   2.3   2.5    55  76.3  67.5  73.9    0.00     0
2017-07-20 22:00   2.7   3.1    74  76.6  67.6  73.1    0.00     0
2017-07-20 21:00   3.1   3.3    52  77.0  68.4  74.5    0.00     0
2017-07-20 20:00   5.2   5.8    53  76.8  69.1  76.6    0.00     0
2017-07-20 19:00   8.4   8.6    39  75.2  71.5  88.2    0.00     0
2017-07-20 18:00   8.4   8.6    46  75.4  71.9  88.6    0.00     0
2017-07-20 17:00  10.1  10.5    50  75.0  71.9  90.0    0.00     0
2017-07-20 16:00  11.1  11.9    48  74.3  72.8  94.9    0.00     0
2017-07-20 15:00   4.7   5.2    37  76.3  71.5  85.0    0.00     0
2017-07-20 14:00   9.1  10.1   291  79.5  70.4  73.2    0.00     0
2017-07-20 13:00  12.2  14.0   209  80.8  69.1  67.2    0.00     0
2017-07-20 12:00  14.0  15.7   189  77.2  67.8  72.5    0.00     0
2017-07-20 11:00  19.1  22.4   190  74.7  68.5  80.9    0.00     0
2017-07-20 10:00  25.3  30.1   200  72.7  70.6  93.2    0.00     0
2017-07-20 09:00   2.5   4.5   144  69.4  70.0 101.9    0.00     0
2017-07-20 08:00   2.7   3.1   145  69.6  70.1 101.8    0.00     0
2017-07-20 07:00  12.6  13.6   268  70.0  69.2  97.3    0.00     0
2017-07-20 06:00   3.9   5.2   178  70.2  68.4  94.1    0.00     0
2017-07-20 05:00   7.6   8.2   206  70.7  67.7  90.2    0.00     0
2017-07-20 04:00   8.6  10.5   200  69.8  67.8  93.3    0.00     0
2017-07-20 03:00   8.4   9.3   168  70.7  67.3  88.8    0.00     0
2017-07-20 02:00  11.5  14.4   159  69.8  68.1  94.2    0.00     0
2017-07-20 01:00   9.9  11.7   169  69.8  68.7  96.3    0.00     0
2017-07-20 00:00   2.5   3.9   276  70.3  69.6  97.5    0.00     0
2017-07-19 23:00  31.1  37.9   263  73.8  71.2  91.7    0.00     0
2017-07-19 22:00   3.3   3.7    52  73.8  72.5  95.6    0.00     0
2017-07-19 21:00   7.6   8.0    38  73.8  71.8  93.4    0.00     0
2017-07-19 20:00   7.8   8.2    43  73.8  71.2  91.6    0.00     0
2017-07-19 19:00   8.2   8.6    39  73.4  71.0  92.0    0.00     0
2017-07-19 18:00   8.4   8.9    37  73.2  71.7  94.8    0.00     0
2017-07-19 17:00   9.9  10.5    33  72.7  71.6  96.2    0.00     0
2017-07-19 16:00   6.0   6.6    27  72.9  71.9  96.7    0.00     0
2017-07-19 15:00   7.6   8.0     2  74.1  69.4  85.0    0.00     0
2017-07-19 14:00   8.9   9.3   345  75.7  68.4  77.7    0.00     0
2017-07-19 13:00   5.6   6.2   337  76.6  67.1  72.0    0.00     0
2017-07-19 12:00   6.4   6.8   350  76.5  67.5  73.4    0.00     0
2017-07-19 11:00   7.6   8.2   283  76.3  66.3  70.8    0.00     0
2017-07-19 10:00   7.0   7.8   234  74.7  66.0  74.0    0.00     0
2017-07-19 09:00   7.0   7.6   223  73.9  66.6  77.4    0.00     0
2017-07-19 08:00   6.8   7.8   212  73.4  65.1  74.8    0.00     0
2017-07-19 07:00   4.5   5.2   180  72.3  63.0  72.2    0.00     0
2017-07-19 06:00   5.1   5.6   180  72.5  61.9  69.0    0.00     0
2017-07-19 05:00   6.4   7.2   180  72.0  60.8  67.4    0.00     0
2017-07-19 04:00   5.8   6.6   181  72.3  60.3  65.5    0.00     0
2017-07-19 03:00   7.2   8.2   184  73.4  58.7  59.6    0.00     0
2017-07-19 02:00   8.0   8.6   195  74.5  57.4  54.7    0.00     0
2017-07-19 01:00   8.7   9.9   191  74.5  57.1  54.2    0.00     0
2017-07-19 00:00  10.3  11.1   181  77.2  56.2  47.7    0.00     0
2017-07-18 23:00  10.1  11.7   182  77.7  57.0  48.3    0.00     0
2017-07-18 22:00   7.4   8.6   186  77.4  56.9  48.8    0.00     0
2017-07-18 21:00   7.4   8.6   167  79.2  56.3  44.9    0.00     0
2017-07-18 20:00   6.2   7.0   168  80.6  59.9  48.7    0.00     0
2017-07-18 19:00   4.5   5.8   181  82.0  60.4  47.3    0.00     0